createdAt,value
2019-01-22T00:00:41.339Z,29.53
2019-01-22T00:03:08.626Z,26.07
2019-01-22T00:05:36.009Z,26.50
2019-01-22T00:08:03.282Z,22.53
2019-01-22T00:10:30.611Z,26.40
2019-01-22T00:12:57.902Z,30.20
2019-01-22T00:15:25.455Z,23.57
2019-01-22T00:17:52.748Z,23.00
2019-01-22T00:20:20.098Z,26.57
2019-01-22T00:22:47.513Z,25.07
2019-01-22T00:25:15.016Z,27.63
2019-01-22T00:27:42.390Z,18.43
2019-01-22T00:30:15.674Z,22.00
2019-01-22T00:32:43.055Z,18.73
2019-01-22T00:35:10.442Z,18.57
2019-01-22T00:37:37.894Z,17.67
2019-01-22T00:40:06.677Z,27.03
2019-01-22T00:42:33.931Z,18.80
2019-01-22T00:45:03.887Z,19.23
2019-01-22T00:47:31.162Z,20.00
2019-01-22T00:49:58.423Z,19.77
2019-01-22T00:52:25.704Z,20.13
2019-01-22T00:54:53.053Z,17.33
2019-01-22T00:57:20.310Z,24.67
2019-01-22T00:59:49.346Z,21.07
2019-01-22T01:02:16.749Z,19.53
2019-01-22T01:04:44.066Z,18.27
2019-01-22T01:07:11.353Z,21.83
2019-01-22T01:09:38.630Z,20.13
2019-01-22T01:12:05.892Z,27.90
2019-01-22T01:14:34.891Z,18.87
2019-01-22T01:17:02.165Z,26.90
2019-01-22T01:19:29.414Z,22.37
2019-01-22T01:21:56.695Z,24.37
2019-01-22T01:24:23.956Z,19.17
2019-01-22T01:26:51.410Z,21.27
2019-01-22T01:29:18.707Z,22.13
2019-01-22T01:31:45.955Z,20.73
2019-01-22T01:34:13.227Z,19.87
2019-01-22T01:36:40.537Z,19.90
2019-01-22T01:39:07.791Z,27.10
2019-01-22T01:41:35.062Z,23.63
2019-01-22T01:44:02.362Z,21.60
2019-01-22T01:46:30.512Z,28.40
2019-01-22T01:48:57.779Z,21.80
2019-01-22T01:51:25.031Z,18.47
2019-01-22T01:53:52.319Z,25.73
2019-01-22T01:56:19.577Z,21.13
2019-01-22T01:58:46.850Z,23.33
2019-01-22T02:01:14.197Z,20.03
2019-01-22T02:03:43.186Z,21.40
2019-01-22T02:06:10.554Z,24.57
2019-01-22T02:08:37.879Z,25.70
2019-01-22T02:11:05.174Z,21.50
2019-01-22T02:13:32.474Z,23.57
2019-01-22T02:16:07.388Z,22.43
2019-01-22T02:18:48.100Z,23.73
2019-01-22T02:21:16.918Z,20.37
2019-01-22T02:23:51.421Z,21.40
2019-01-22T02:26:20.352Z,24.97
2019-01-22T02:28:55.195Z,20.00
2019-01-22T02:31:33.085Z,19.93
2019-01-22T02:34:08.044Z,20.73
2019-01-22T02:36:49.967Z,23.77
2019-01-22T02:39:18.813Z,20.80
2019-01-22T02:41:47.718Z,21.70
2019-01-22T02:44:28.443Z,20.67
2019-01-22T02:47:03.698Z,20.03
2019-01-22T02:49:41.369Z,23.97
2019-01-22T02:52:13.119Z,20.33
2019-01-22T02:54:41.926Z,17.40
2019-01-22T02:57:10.795Z,18.20
2019-01-22T02:59:39.614Z,21.07
2019-01-22T03:02:24.930Z,13.87
2019-01-22T03:04:59.434Z,20.60
2019-01-22T03:07:28.317Z,18.20
2019-01-22T03:09:57.212Z,18.50
2019-01-22T03:12:34.859Z,19.23
2019-01-22T03:15:21.637Z,18.07
2019-01-22T03:17:50.550Z,21.77
2019-01-22T03:20:19.340Z,17.57
2019-01-22T03:22:50.814Z,20.90
2019-01-22T03:25:19.702Z,19.07
2019-01-22T03:27:56.253Z,23.13
2019-01-22T03:30:37.303Z,20.37
2019-01-22T03:33:06.180Z,19.60
2019-01-22T03:35:35.057Z,22.13
2019-01-22T03:38:08.449Z,21.30
2019-01-22T03:40:52.343Z,21.83
2019-01-22T03:43:24.026Z,18.73
2019-01-22T03:45:55.641Z,21.13
2019-01-22T03:48:24.450Z,21.73
2019-01-22T03:50:56.027Z,28.13
2019-01-22T03:53:24.884Z,19.43
2019-01-22T03:56:10.054Z,21.33
2019-01-22T03:58:37.350Z,24.67
2019-01-22T04:01:06.167Z,26.67
2019-01-22T04:03:33.478Z,17.57
2019-01-22T04:06:02.297Z,16.60
2019-01-22T04:08:29.563Z,22.20
2019-01-22T04:10:58.355Z,22.60
2019-01-22T04:13:25.647Z,20.77
2019-01-22T04:15:54.655Z,21.10
2019-01-22T04:18:21.914Z,18.67
2019-01-22T04:20:49.237Z,17.83
2019-01-22T04:23:18.063Z,23.50
2019-01-22T04:25:55.859Z,22.03
2019-01-22T04:28:27.138Z,18.70
2019-01-22T04:30:55.960Z,19.63
2019-01-22T04:33:24.743Z,16.20
2019-01-22T04:36:02.685Z,20.80
2019-01-22T04:38:31.526Z,17.43
2019-01-22T04:41:12.407Z,20.73
2019-01-22T04:43:42.949Z,23.17
2019-01-22T04:46:14.747Z,23.77
2019-01-22T04:48:46.514Z,19.17
2019-01-22T04:51:21.412Z,15.63
2019-01-22T04:53:50.232Z,13.87
2019-01-22T04:56:24.970Z,18.80
2019-01-22T04:58:53.778Z,25.20
2019-01-22T05:01:25.282Z,21.37
2019-01-22T05:03:57.011Z,23.00
2019-01-22T05:06:34.603Z,15.70
2019-01-22T05:09:09.351Z,15.97
2019-01-22T05:11:40.847Z,23.43
2019-01-22T05:14:09.654Z,19.90
2019-01-22T05:16:44.147Z,16.70
2019-01-22T05:19:15.645Z,20.17
2019-01-22T05:21:56.334Z,18.17
2019-01-22T05:24:36.936Z,24.23
2019-01-22T05:27:22.194Z,21.17
2019-01-22T05:30:07.515Z,18.40
2019-01-22T05:32:38.988Z,22.00
2019-01-22T05:35:26.110Z,26.67
2019-01-22T05:37:57.790Z,22.83
2019-01-22T05:40:29.715Z,19.93
2019-01-22T05:43:10.566Z,15.77
2019-01-22T05:45:56.200Z,19.03
2019-01-22T05:48:25.021Z,17.40
2019-01-22T05:50:53.901Z,22.67
2019-01-22T05:53:22.730Z,18.30
2019-01-22T05:55:54.263Z,14.03
2019-01-22T05:58:39.819Z,17.23
2019-01-22T06:01:08.631Z,19.13
2019-01-22T06:03:40.241Z,17.27
2019-01-22T06:06:11.968Z,17.67
2019-01-22T06:08:43.419Z,17.73
2019-01-22T06:11:29.065Z,17.87
2019-01-22T06:14:14.207Z,17.97
2019-01-22T06:16:45.735Z,18.33
2019-01-22T06:19:17.551Z,17.77
2019-01-22T06:21:49.083Z,14.77
2019-01-22T06:24:23.827Z,17.30
2019-01-22T06:26:52.630Z,17.13
2019-01-22T06:29:39.607Z,17.03
2019-01-22T06:32:08.418Z,20.80
2019-01-22T06:34:43.464Z,17.40
2019-01-22T06:37:15.203Z,16.73
2019-01-22T06:39:49.969Z,15.27
2019-01-22T06:42:23.131Z,17.57
2019-01-22T06:45:11.276Z,18.03
2019-01-22T06:47:40.098Z,16.03
2019-01-22T06:50:25.343Z,23.07
2019-01-22T06:52:56.839Z,19.80
2019-01-22T06:55:25.667Z,19.50
2019-01-22T06:58:03.177Z,22.40
2019-01-22T07:00:31.983Z,18.47
2019-01-22T07:03:00.796Z,20.40
2019-01-22T07:05:32.270Z,23.63
2019-01-22T07:08:17.576Z,15.87
2019-01-22T07:10:46.380Z,20.40
2019-01-22T07:13:17.821Z,18.77
2019-01-22T07:15:46.640Z,21.90
2019-01-22T07:18:24.454Z,21.20
2019-01-22T07:21:02.115Z,16.73
2019-01-22T07:23:45.875Z,19.83
2019-01-22T07:26:30.958Z,18.97
2019-01-22T07:28:59.739Z,23.10
2019-01-22T07:31:28.546Z,15.97
2019-01-22T07:33:57.333Z,21.83
2019-01-22T07:36:29.087Z,18.90
2019-01-22T07:39:05.665Z,18.20
2019-01-22T07:41:40.630Z,18.77
2019-01-22T07:44:24.739Z,19.80
2019-01-22T07:46:56.232Z,21.23
2019-01-22T07:49:36.856Z,20.43
2019-01-22T07:52:20.590Z,22.07
2019-01-22T07:55:04.670Z,19.47
2019-01-22T07:57:33.463Z,20.53
2019-01-22T08:00:02.278Z,20.80
2019-01-22T08:02:40.061Z,20.70
2019-01-22T08:05:10.502Z,20.57
2019-01-22T08:07:43.879Z,25.30
2019-01-22T08:10:29.619Z,21.07
2019-01-22T08:12:58.477Z,23.20
2019-01-22T08:15:36.385Z,19.47
2019-01-22T08:18:20.409Z,20.97
2019-01-22T08:20:58.156Z,19.57
2019-01-22T08:23:36.173Z,20.10
2019-01-22T08:26:05.054Z,19.30
2019-01-22T08:28:42.621Z,17.17
2019-01-22T08:31:17.079Z,18.10
2019-01-22T08:33:45.880Z,22.03
2019-01-22T08:36:17.531Z,19.33
2019-01-22T08:38:49.235Z,18.17
2019-01-22T08:41:20.998Z,22.67
2019-01-22T08:43:52.791Z,19.83
2019-01-22T08:46:24.490Z,22.97
2019-01-22T08:48:56.006Z,17.27
2019-01-22T08:51:42.910Z,21.37
2019-01-22T08:54:26.651Z,20.93
2019-01-22T08:57:09.282Z,26.07
2019-01-22T08:59:53.322Z,20.03
2019-01-22T09:02:33.918Z,21.93
2019-01-22T09:05:02.738Z,20.53
2019-01-22T09:07:31.531Z,17.97
2019-01-22T09:10:00.343Z,19.80
2019-01-22T09:12:29.165Z,23.93
2019-01-22T09:15:15.960Z,25.47
2019-01-22T09:17:47.463Z,20.33
2019-01-22T09:20:16.302Z,21.57
2019-01-22T09:22:45.142Z,27.57
2019-01-22T09:25:14.794Z,27.63
2019-01-22T09:27:44.489Z,29.43
2019-01-22T09:30:25.272Z,26.77
2019-01-22T09:33:05.960Z,30.47
2019-01-22T09:35:37.551Z,25.60
2019-01-22T09:38:04.907Z,32.17
2019-01-22T09:40:32.281Z,28.30
2019-01-22T09:42:59.946Z,28.77
2019-01-22T09:45:27.206Z,28.77
2019-01-22T09:47:54.465Z,34.47
2019-01-22T09:50:21.759Z,31.73
2019-01-22T09:52:49.012Z,24.67
2019-01-22T09:55:22.200Z,29.43
2019-01-22T09:57:45.258Z,30.53
2019-01-22T10:00:14.090Z,33.37
2019-01-22T10:02:42.292Z,30.80
2019-01-22T10:05:09.539Z,30.03
2019-01-22T10:07:36.811Z,30.93
2019-01-22T10:10:05.640Z,35.50
2019-01-22T10:12:32.909Z,33.27
2019-01-22T10:15:00.305Z,30.77
2019-01-22T10:17:29.200Z,28.33
2019-01-22T10:19:56.491Z,38.77
2019-01-22T10:22:23.748Z,28.37
2019-01-22T10:24:51.021Z,27.40
2019-01-22T10:27:18.282Z,32.57
2019-01-22T10:29:45.562Z,30.50
2019-01-22T10:32:12.871Z,35.17
2019-01-22T10:34:40.134Z,34.27
2019-01-22T10:37:07.384Z,36.77
2019-01-22T10:39:34.646Z,32.50
2019-01-22T10:42:01.895Z,32.10
2019-01-22T10:44:29.167Z,30.87
2019-01-22T10:46:56.446Z,31.23
2019-01-22T10:49:23.734Z,27.40
2019-01-22T10:51:51.003Z,28.17
2019-01-22T10:54:18.274Z,31.07
2019-01-22T10:56:45.558Z,31.77
2019-01-22T10:59:12.855Z,35.57
2019-01-22T11:01:40.210Z,35.73
2019-01-22T11:04:07.481Z,26.37
2019-01-22T11:06:34.810Z,31.47
2019-01-22T11:09:02.065Z,27.30
2019-01-22T11:11:29.350Z,31.53
2019-01-22T11:13:56.617Z,28.33
2019-01-22T11:16:23.897Z,33.70
2019-01-22T11:18:51.152Z,28.07
2019-01-22T11:21:18.427Z,38.53
2019-01-22T11:23:45.701Z,29.30
2019-01-22T11:26:13.056Z,30.73
2019-01-22T11:28:40.338Z,31.73
2019-01-22T11:31:07.606Z,35.27
2019-01-22T11:33:34.961Z,31.83
2019-01-22T11:36:02.238Z,34.00
2019-01-22T11:38:29.487Z,37.33
2019-01-22T11:40:56.782Z,38.60
2019-01-22T11:43:24.038Z,34.63
2019-01-22T11:45:51.326Z,38.30
2019-01-22T11:48:18.579Z,34.33
2019-01-22T11:50:45.858Z,37.30
2019-01-22T11:53:13.182Z,34.67
2019-01-22T11:55:40.486Z,28.23
2019-01-22T11:58:07.758Z,27.80
2019-01-22T12:00:38.207Z,30.10
2019-01-22T12:03:07.009Z,34.97
2019-01-22T12:05:34.253Z,31.03
2019-01-22T12:08:01.588Z,31.47
2019-01-22T12:10:29.013Z,30.83
2019-01-22T12:12:56.489Z,25.33
2019-01-22T12:15:25.145Z,27.83
2019-01-22T12:17:52.830Z,29.67
2019-01-22T12:20:21.615Z,30.93
2019-01-22T12:22:50.690Z,29.30
2019-01-22T12:25:17.959Z,29.20
2019-01-22T12:27:45.321Z,24.07
2019-01-22T12:30:17.278Z,26.83
2019-01-22T12:32:44.626Z,26.87
2019-01-22T12:35:13.429Z,28.23
2019-01-22T12:37:40.931Z,28.90
2019-01-22T12:40:09.811Z,37.93
2019-01-22T12:42:37.162Z,24.73
2019-01-22T12:45:05.964Z,24.30
2019-01-22T12:47:33.344Z,30.27
2019-01-22T12:50:00.704Z,32.20
2019-01-22T12:52:28.021Z,25.13
2019-01-22T12:54:55.306Z,31.57
2019-01-22T12:57:22.566Z,26.00
2019-01-22T12:59:49.837Z,27.63
2019-01-22T13:02:17.107Z,28.27
2019-01-22T13:04:44.388Z,26.43
2019-01-22T13:07:11.638Z,20.83
2019-01-22T13:09:38.960Z,24.23
2019-01-22T13:12:06.296Z,23.33
2019-01-22T13:14:33.578Z,33.17
2019-01-22T13:17:00.861Z,29.77
2019-01-22T13:19:28.151Z,36.03
2019-01-22T13:21:55.406Z,30.33
2019-01-22T13:24:22.679Z,30.97
2019-01-22T13:26:49.974Z,21.07
2019-01-22T13:29:17.264Z,23.60
2019-01-22T13:31:44.552Z,35.97
2019-01-22T13:34:11.965Z,24.17
2019-01-22T13:36:39.222Z,35.90
2019-01-22T13:39:08.277Z,23.90
2019-01-22T13:41:35.614Z,28.40
2019-01-22T13:44:02.906Z,27.40
2019-01-22T13:46:32.162Z,29.07
2019-01-22T13:48:59.202Z,27.20
2019-01-22T13:51:27.342Z,35.87
2019-01-22T13:53:54.608Z,31.60
2019-01-22T13:56:21.890Z,28.87
2019-01-22T13:58:49.159Z,31.20
2019-01-22T14:01:16.423Z,35.40
2019-01-22T14:03:43.788Z,29.40
2019-01-22T14:06:11.069Z,20.73
2019-01-22T14:08:38.343Z,25.73
2019-01-22T14:11:05.662Z,37.50
2019-01-22T14:13:32.986Z,20.73
2019-01-22T14:16:00.260Z,34.10
2019-01-22T14:18:27.534Z,34.60
2019-01-22T14:20:54.803Z,29.30
2019-01-22T14:23:22.159Z,36.70
2019-01-22T14:25:49.413Z,26.73
2019-01-22T14:28:16.695Z,26.17
2019-01-22T14:30:43.959Z,26.40
2019-01-22T14:33:11.245Z,33.50
2019-01-22T14:35:38.551Z,22.57
2019-01-22T14:38:08.327Z,27.97
2019-01-22T14:40:35.659Z,24.53
2019-01-22T14:43:03.000Z,35.97
2019-01-22T14:45:30.284Z,32.30
2019-01-22T14:47:57.539Z,29.70
2019-01-22T14:50:26.371Z,38.07
2019-01-22T14:52:53.662Z,50.28
2019-01-22T14:55:20.996Z,42.30
2019-01-22T14:57:49.012Z,27.20
2019-01-22T15:00:17.988Z,35.27
2019-01-22T15:02:45.322Z,31.47
2019-01-22T15:05:14.441Z,33.10
2019-01-22T15:07:41.735Z,29.47
2019-01-22T15:10:10.610Z,38.67
2019-01-22T15:12:37.917Z,38.43
2019-01-22T15:15:06.704Z,29.17
2019-01-22T15:17:33.994Z,27.87
2019-01-22T15:20:01.348Z,39.60
2019-01-22T15:22:28.636Z,28.77
2019-01-22T15:24:55.934Z,37.90
2019-01-22T15:27:23.251Z,27.37
2019-01-22T15:29:50.519Z,29.23
2019-01-22T15:32:17.815Z,27.70
2019-01-22T15:34:45.071Z,33.83
2019-01-22T15:37:12.339Z,24.97
2019-01-22T15:39:39.610Z,26.67
2019-01-22T15:42:06.902Z,30.03
2019-01-22T15:44:34.189Z,42.07
2019-01-22T15:47:01.467Z,38.27
2019-01-22T15:49:28.753Z,29.77
2019-01-22T15:51:56.030Z,28.40
2019-01-22T15:54:23.327Z,29.23
2019-01-22T15:56:50.577Z,27.93
2019-01-22T15:59:17.851Z,36.67
2019-01-22T16:01:45.210Z,25.43
2019-01-22T16:04:12.511Z,43.90
2019-01-22T16:06:39.782Z,25.87
2019-01-22T16:09:08.591Z,24.40
2019-01-22T16:11:35.867Z,37.40
2019-01-22T16:14:03.195Z,35.90
2019-01-22T16:16:30.498Z,42.80
2019-01-22T16:18:57.786Z,35.20
2019-01-22T16:21:25.055Z,32.10
2019-01-22T16:23:52.330Z,37.93
2019-01-22T16:26:19.606Z,31.60
2019-01-22T16:28:46.850Z,37.43
2019-01-22T16:31:14.125Z,33.37
2019-01-22T16:33:41.439Z,37.17
2019-01-22T16:36:08.760Z,42.80
2019-01-22T16:38:36.030Z,21.50
2019-01-22T16:41:03.295Z,36.67
2019-01-22T16:43:30.550Z,22.20
2019-01-22T16:45:57.843Z,34.50
2019-01-22T16:48:25.137Z,27.07
2019-01-22T16:50:52.410Z,31.93
2019-01-22T16:53:19.680Z,34.93
2019-01-22T16:55:46.957Z,40.20
2019-01-22T16:58:14.258Z,38.97
2019-01-22T17:00:41.546Z,31.47
2019-01-22T17:03:10.357Z,32.20
2019-01-22T17:05:39.162Z,25.33
2019-01-22T17:08:06.457Z,32.37
2019-01-22T17:10:35.247Z,31.23
2019-01-22T17:13:02.542Z,46.23
2019-01-22T17:15:29.826Z,32.60
2019-01-22T17:17:57.079Z,28.23
2019-01-22T17:20:25.904Z,36.47
2019-01-22T17:22:53.240Z,40.20
2019-01-22T17:25:20.536Z,39.83
2019-01-22T17:27:47.787Z,36.50
2019-01-22T17:30:16.594Z,34.70
2019-01-22T17:32:48.175Z,34.60
2019-01-22T17:35:15.466Z,32.03
2019-01-22T17:37:42.719Z,30.73
2019-01-22T17:40:16.309Z,30.87
2019-01-22T17:42:43.181Z,41.20
2019-01-22T17:45:11.977Z,32.13
2019-01-22T17:47:39.276Z,40.63
2019-01-22T17:50:11.017Z,33.97
2019-01-22T17:52:37.101Z,37.30
2019-01-22T17:55:05.909Z,35.10
2019-01-22T17:57:33.179Z,48.90
2019-01-22T18:00:00.462Z,42.17
2019-01-22T18:02:27.726Z,37.53
2019-01-22T18:04:55.087Z,25.17
2019-01-22T18:07:22.361Z,35.27
2019-01-22T18:09:49.626Z,31.37
2019-01-22T18:12:16.878Z,29.53
2019-01-22T18:14:44.150Z,46.70
2019-01-22T18:17:11.427Z,28.40
2019-01-22T18:19:38.718Z,32.60
2019-01-22T18:22:05.995Z,37.20
2019-01-22T18:24:33.294Z,33.30
2019-01-22T18:27:00.562Z,31.90
2019-01-22T18:29:27.827Z,40.47
2019-01-22T18:31:55.107Z,37.70
2019-01-22T18:34:23.555Z,52.10
2019-01-22T18:36:50.869Z,47.67
2019-01-22T18:39:18.158Z,45.60
2019-01-22T18:41:45.430Z,50.70
2019-01-22T18:44:12.727Z,47.23
2019-01-22T18:46:40.007Z,47.03
2019-01-22T18:49:07.287Z,43.40
2019-01-22T18:51:34.566Z,42.43
2019-01-22T18:54:01.854Z,40.50
2019-01-22T18:56:29.125Z,46.27
2019-01-22T18:58:56.419Z,48.50
2019-01-22T19:01:23.693Z,42.50
2019-01-22T19:03:51.027Z,53.10
2019-01-22T19:06:18.293Z,43.63
2019-01-22T19:08:45.563Z,37.13
2019-01-22T19:11:12.825Z,45.17
2019-01-22T19:13:40.102Z,38.47
2019-01-22T19:16:07.394Z,45.50
2019-01-22T19:18:34.651Z,47.23
2019-01-22T19:21:02.113Z,45.77
2019-01-22T19:23:29.371Z,48.17
2019-01-22T19:25:56.665Z,42.97
2019-01-22T19:28:23.908Z,40.70
2019-01-22T19:30:51.210Z,38.60
2019-01-22T19:33:18.467Z,37.03
2019-01-22T19:35:47.269Z,37.67
2019-01-22T19:38:14.525Z,39.70
2019-01-22T19:40:41.818Z,53.67
2019-01-22T19:43:09.072Z,44.70
2019-01-22T19:45:36.379Z,40.93
2019-01-22T19:48:05.204Z,47.03
2019-01-22T19:50:32.483Z,46.13
2019-01-22T19:52:59.778Z,42.50
2019-01-22T19:55:27.109Z,46.63
2019-01-22T19:57:54.407Z,46.33
2019-01-22T20:00:23.214Z,41.43
2019-01-22T20:02:50.498Z,37.67
2019-01-22T20:05:17.940Z,38.03
2019-01-22T20:07:45.226Z,46.30
2019-01-22T20:10:14.044Z,47.97
2019-01-22T20:12:41.310Z,40.30
2019-01-22T20:15:10.134Z,42.17
2019-01-22T20:17:37.391Z,59.13
2019-01-22T20:20:06.207Z,42.97
2019-01-22T20:22:33.530Z,53.20
2019-01-22T20:25:00.813Z,59.63
2019-01-22T20:27:28.079Z,59.97
2019-01-22T20:29:55.354Z,36.00
2019-01-22T20:32:22.627Z,41.63
2019-01-22T20:34:49.922Z,57.17
2019-01-22T20:37:17.172Z,45.00
2019-01-22T20:39:44.458Z,46.63
2019-01-22T20:42:11.742Z,36.97
2019-01-22T20:44:39.012Z,60.30
2019-01-22T20:47:06.267Z,41.33
2019-01-22T20:49:33.557Z,51.00
2019-01-22T20:52:00.850Z,37.60
2019-01-22T20:54:28.118Z,52.87
2019-01-22T20:56:55.381Z,54.50
2019-01-22T20:59:22.673Z,47.23
2019-01-22T21:01:49.939Z,57.30
2019-01-22T21:04:17.302Z,58.83
2019-01-22T21:06:44.564Z,48.43
2019-01-22T21:09:11.836Z,46.83
2019-01-22T21:11:39.145Z,54.80
2019-01-22T21:14:06.410Z,56.17
2019-01-22T21:16:33.703Z,53.60
2019-01-22T21:19:01.012Z,39.43
2019-01-22T21:21:28.339Z,27.23
2019-01-22T21:23:55.715Z,23.23
2019-01-22T21:26:22.999Z,30.67
2019-01-22T21:28:50.303Z,34.90
2019-01-22T21:31:17.704Z,30.07
2019-01-22T21:33:45.083Z,35.93
2019-01-22T21:36:12.496Z,42.17
2019-01-22T21:38:39.833Z,27.97
2019-01-22T21:41:07.236Z,38.20
2019-01-22T21:43:34.659Z,35.77
2019-01-22T21:46:02.021Z,23.40
2019-01-22T21:48:29.422Z,30.80
2019-01-22T21:50:56.821Z,33.30
2019-01-22T21:53:24.132Z,34.00
2019-01-22T21:55:51.479Z,26.67
2019-01-22T21:58:18.852Z,29.30
2019-01-22T22:00:46.245Z,36.67
2019-01-22T22:03:13.658Z,24.93
2019-01-22T22:05:41.045Z,27.37
2019-01-22T22:08:08.530Z,26.97
2019-01-22T22:10:35.905Z,30.57
2019-01-22T22:13:03.309Z,32.77
2019-01-22T22:15:30.694Z,33.13
2019-01-22T22:17:58.081Z,34.63
2019-01-22T22:20:25.479Z,39.57
2019-01-22T22:22:52.900Z,27.77
2019-01-22T22:25:21.838Z,20.37
2019-01-22T22:27:49.214Z,23.03
2019-01-22T22:30:24.249Z,37.73
2019-01-22T22:32:51.647Z,33.33
2019-01-22T22:35:19.113Z,34.47
2019-01-22T22:37:46.597Z,34.33
2019-01-22T22:40:15.638Z,21.67
2019-01-22T22:42:43.029Z,29.70
2019-01-22T22:45:11.952Z,23.87
2019-01-22T22:47:39.390Z,38.10
2019-01-22T22:50:08.318Z,33.63
2019-01-22T22:52:35.709Z,35.87
2019-01-22T22:55:03.097Z,29.23
2019-01-22T22:57:30.477Z,25.33
2019-01-22T22:59:57.846Z,29.90
2019-01-22T23:02:25.222Z,26.47
2019-01-22T23:04:52.600Z,37.27
2019-01-22T23:07:19.928Z,32.90
2019-01-22T23:09:47.356Z,20.27
2019-01-22T23:12:14.733Z,35.10
2019-01-22T23:14:43.301Z,43.67
2019-01-22T23:17:10.706Z,24.20
2019-01-22T23:19:38.124Z,35.60
2019-01-22T23:22:05.516Z,34.63
2019-01-22T23:24:32.926Z,33.27
2019-01-22T23:27:00.336Z,34.00
2019-01-22T23:29:27.713Z,33.90
2019-01-22T23:31:55.112Z,35.77
2019-01-22T23:34:22.512Z,26.03
2019-01-22T23:36:49.912Z,20.07
2019-01-22T23:39:17.333Z,19.97
2019-01-22T23:41:44.740Z,27.37
2019-01-22T23:44:12.162Z,36.90
2019-01-22T23:46:39.584Z,40.20
2019-01-22T23:49:06.996Z,44.27
2019-01-22T23:51:34.392Z,43.03
2019-01-22T23:54:01.803Z,42.67
2019-01-22T23:56:29.185Z,36.23
2019-01-22T23:58:56.596Z,21.90
